sensor_id;sensor_type;location;lat;lon;timestamp;P1;durP1;ratioP1;P2;durP2;ratioP2
11638;SDS011;5875;35.940;126.892;2024-01-11T00:00:09;8.90;;;8.00;;
11638;SDS011;5875;35.940;126.892;2024-01-11T00:02:37;12.57;;;8.10;;
11638;SDS011;5875;35.940;126.892;2024-01-11T00:05:04;6.03;;;5.43;;
11638;SDS011;5875;35.940;126.892;2024-01-11T00:07:36;3.67;;;3.20;;
11638;SDS011;5875;35.940;126.892;2024-01-11T00:10:03;3.63;;;3.13;;
11638;SDS011;5875;35.940;126.892;2024-01-11T00:12:30;8.40;;;4.20;;
11638;SDS011;5875;35.940;126.892;2024-01-11T00:14:57;4.33;;;4.00;;
11638;SDS011;5875;35.940;126.892;2024-01-11T00:17:25;4.77;;;4.37;;
11638;SDS011;5875;35.940;126.892;2024-01-11T00:19:52;9.93;;;6.50;;
11638;SDS011;5875;35.940;126.892;2024-01-11T00:22:21;5.20;;;4.13;;
11638;SDS011;5875;35.940;126.892;2024-01-11T00:24:49;5.17;;;4.67;;
11638;SDS011;5875;35.940;126.892;2024-01-11T00:27:16;6.87;;;3.67;;
11638;SDS011;5875;35.940;126.892;2024-01-11T00:29:43;8.37;;;7.57;;
11638;SDS011;5875;35.940;126.892;2024-01-11T00:32:10;9.60;;;6.77;;
11638;SDS011;5875;35.940;126.892;2024-01-11T00:34:37;21.70;;;10.63;;
11638;SDS011;5875;35.940;126.892;2024-01-11T00:37:04;9.37;;;7.13;;
11638;SDS011;5875;35.940;126.892;2024-01-11T00:39:32;5.33;;;3.27;;
11638;SDS011;5875;35.940;126.892;2024-01-11T00:41:59;4.37;;;3.37;;
11638;SDS011;5875;35.940;126.892;2024-01-11T00:44:26;4.93;;;4.63;;
11638;SDS011;5875;35.940;126.892;2024-01-11T00:46:56;12.60;;;7.10;;
11638;SDS011;5875;35.940;126.892;2024-01-11T00:49:23;10.97;;;8.60;;
11638;SDS011;5875;35.940;126.892;2024-01-11T00:51:53;14.53;;;8.60;;
11638;SDS011;5875;35.940;126.892;2024-01-11T00:54:20;10.13;;;8.17;;
11638;SDS011;5875;35.940;126.892;2024-01-11T00:56:49;20.67;;;12.57;;
11638;SDS011;5875;35.940;126.892;2024-01-11T00:59:16;16.10;;;7.73;;
11638;SDS011;5875;35.940;126.892;2024-01-11T01:01:47;10.73;;;6.87;;
11638;SDS011;5875;35.940;126.892;2024-01-11T01:04:14;9.03;;;7.33;;
11638;SDS011;5875;35.940;126.892;2024-01-11T01:06:44;10.27;;;8.07;;
11638;SDS011;5875;35.940;126.892;2024-01-11T01:09:11;7.37;;;4.93;;
11638;SDS011;5875;35.940;126.892;2024-01-11T01:11:39;15.77;;;8.83;;
11638;SDS011;5875;35.940;126.892;2024-01-11T01:14:06;11.33;;;8.47;;
11638;SDS011;5875;35.940;126.892;2024-01-11T01:16:33;6.73;;;6.10;;
11638;SDS011;5875;35.940;126.892;2024-01-11T01:19:00;13.03;;;8.60;;
11638;SDS011;5875;35.940;126.892;2024-01-11T01:21:28;16.93;;;9.50;;
11638;SDS011;5875;35.940;126.892;2024-01-11T01:23:55;6.77;;;6.17;;
11638;SDS011;5875;35.940;126.892;2024-01-11T01:26:22;14.30;;;7.50;;
11638;SDS011;5875;35.940;126.892;2024-01-11T01:28:49;8.77;;;7.83;;
11638;SDS011;5875;35.940;126.892;2024-01-11T01:31:16;8.63;;;7.87;;
11638;SDS011;5875;35.940;126.892;2024-01-11T01:33:43;13.23;;;7.20;;
11638;SDS011;5875;35.940;126.892;2024-01-11T01:36:10;15.90;;;8.17;;
11638;SDS011;5875;35.940;126.892;2024-01-11T01:38:38;7.23;;;6.60;;
11638;SDS011;5875;35.940;126.892;2024-01-11T01:41:05;7.93;;;7.27;;
11638;SDS011;5875;35.940;126.892;2024-01-11T01:43:33;9.27;;;7.60;;
11638;SDS011;5875;35.940;126.892;2024-01-11T01:46:00;13.43;;;8.03;;
11638;SDS011;5875;35.940;126.892;2024-01-11T01:48:28;10.80;;;6.27;;
11638;SDS011;5875;35.940;126.892;2024-01-11T01:50:55;11.70;;;8.03;;
11638;SDS011;5875;35.940;126.892;2024-01-11T01:53:25;7.97;;;5.67;;
11638;SDS011;5875;35.940;126.892;2024-01-11T01:55:54;6.63;;;5.70;;
11638;SDS011;5875;35.940;126.892;2024-01-11T01:58:22;25.90;;;11.13;;
11638;SDS011;5875;35.940;126.892;2024-01-11T02:00:49;9.40;;;6.23;;
11638;SDS011;5875;35.940;126.892;2024-01-11T02:03:18;13.27;;;7.43;;
11638;SDS011;5875;35.940;126.892;2024-01-11T02:05:45;11.60;;;6.77;;
11638;SDS011;5875;35.940;126.892;2024-01-11T02:08:15;10.33;;;7.83;;
11638;SDS011;5875;35.940;126.892;2024-01-11T02:10:43;9.10;;;6.67;;
11638;SDS011;5875;35.940;126.892;2024-01-11T02:13:11;9.60;;;6.80;;
11638;SDS011;5875;35.940;126.892;2024-01-11T02:15:39;10.50;;;4.67;;
11638;SDS011;5875;35.940;126.892;2024-01-11T02:18:06;9.73;;;6.27;;
11638;SDS011;5875;35.940;126.892;2024-01-11T02:20:33;8.50;;;6.20;;
11638;SDS011;5875;35.940;126.892;2024-01-11T02:23:06;5.80;;;4.87;;
11638;SDS011;5875;35.940;126.892;2024-01-11T02:25:43;7.53;;;4.00;;
11638;SDS011;5875;35.940;126.892;2024-01-11T02:28:10;7.90;;;5.33;;
11638;SDS011;5875;35.940;126.892;2024-01-11T02:30:37;7.47;;;4.80;;
11638;SDS011;5875;35.940;126.892;2024-01-11T02:33:04;4.30;;;3.87;;
11638;SDS011;5875;35.940;126.892;2024-01-11T02:35:32;4.47;;;3.63;;
11638;SDS011;5875;35.940;126.892;2024-01-11T02:38:05;10.73;;;4.03;;
11638;SDS011;5875;35.940;126.892;2024-01-11T02:40:32;7.73;;;4.67;;
11638;SDS011;5875;35.940;126.892;2024-01-11T02:43:09;2.27;;;2.13;;
11638;SDS011;5875;35.940;126.892;2024-01-11T02:45:37;4.93;;;2.77;;
11638;SDS011;5875;35.940;126.892;2024-01-11T02:48:04;1.13;;;1.13;;
11638;SDS011;5875;35.940;126.892;2024-01-11T02:50:32;4.33;;;3.40;;
11638;SDS011;5875;35.940;126.892;2024-01-11T02:53:01;6.03;;;4.30;;
11638;SDS011;5875;35.940;126.892;2024-01-11T02:55:29;3.47;;;3.20;;
11638;SDS011;5875;35.940;126.892;2024-01-11T02:57:59;3.40;;;3.20;;
11638;SDS011;5875;35.940;126.892;2024-01-11T03:00:26;5.50;;;2.80;;
11638;SDS011;5875;35.940;126.892;2024-01-11T03:02:53;4.60;;;2.87;;
11638;SDS011;5875;35.940;126.892;2024-01-11T03:05:23;3.63;;;2.97;;
11638;SDS011;5875;35.940;126.892;2024-01-11T03:07:50;0.67;;;0.67;;
11638;SDS011;5875;35.940;126.892;2024-01-11T03:10:20;1.20;;;0.80;;
11638;SDS011;5875;35.940;126.892;2024-01-11T03:12:47;1.07;;;0.97;;
11638;SDS011;5875;35.940;126.892;2024-01-11T03:15:15;1.43;;;1.23;;
11638;SDS011;5875;35.940;126.892;2024-01-11T03:17:42;2.60;;;2.10;;
11638;SDS011;5875;35.940;126.892;2024-01-11T03:20:09;0.63;;;0.63;;
11638;SDS011;5875;35.940;126.892;2024-01-11T03:22:37;1.80;;;1.40;;
11638;SDS011;5875;35.940;126.892;2024-01-11T03:25:13;0.73;;;0.73;;
11638;SDS011;5875;35.940;126.892;2024-01-11T03:27:41;0.57;;;0.57;;
11638;SDS011;5875;35.940;126.892;2024-01-11T03:30:08;1.10;;;1.10;;
11638;SDS011;5875;35.940;126.892;2024-01-11T03:32:35;1.37;;;1.27;;
11638;SDS011;5875;35.940;126.892;2024-01-11T03:35:07;0.50;;;0.50;;
11638;SDS011;5875;35.940;126.892;2024-01-11T03:37:35;0.60;;;0.53;;
11638;SDS011;5875;35.940;126.892;2024-01-11T03:40:02;1.30;;;1.23;;
11638;SDS011;5875;35.940;126.892;2024-01-11T03:42:30;0.50;;;0.50;;
11638;SDS011;5875;35.940;126.892;2024-01-11T03:44:57;1.07;;;0.50;;
11638;SDS011;5875;35.940;126.892;2024-01-11T03:47:24;0.17;;;0.17;;
11638;SDS011;5875;35.940;126.892;2024-01-11T03:49:51;0.27;;;0.27;;
11638;SDS011;5875;35.940;126.892;2024-01-11T03:52:19;0.30;;;0.30;;
11638;SDS011;5875;35.940;126.892;2024-01-11T03:54:46;0.17;;;0.17;;
11638;SDS011;5875;35.940;126.892;2024-01-11T03:57:13;2.43;;;0.97;;
11638;SDS011;5875;35.940;126.892;2024-01-11T03:59:42;20.57;;;2.40;;
11638;SDS011;5875;35.940;126.892;2024-01-11T04:02:10;0.50;;;0.50;;
11638;SDS011;5875;35.940;126.892;2024-01-11T04:04:37;0.30;;;0.30;;
11638;SDS011;5875;35.940;126.892;2024-01-11T04:07:04;0.30;;;0.30;;
11638;SDS011;5875;35.940;126.892;2024-01-11T04:09:31;1.80;;;1.40;;
11638;SDS011;5875;35.940;126.892;2024-01-11T04:11:59;0.20;;;0.20;;
11638;SDS011;5875;35.940;126.892;2024-01-11T04:14:26;0.10;;;0.10;;
11638;SDS011;5875;35.940;126.892;2024-01-11T04:16:53;2.03;;;0.90;;
11638;SDS011;5875;35.940;126.892;2024-01-11T04:19:20;0.20;;;0.20;;
11638;SDS011;5875;35.940;126.892;2024-01-11T04:21:47;0.47;;;0.47;;
11638;SDS011;5875;35.940;126.892;2024-01-11T04:24:14;0.10;;;0.10;;
11638;SDS011;5875;35.940;126.892;2024-01-11T04:26:42;0.40;;;0.40;;
11638;SDS011;5875;35.940;126.892;2024-01-11T04:29:09;0.20;;;0.20;;
11638;SDS011;5875;35.940;126.892;2024-01-11T04:31:36;0.57;;;0.57;;
11638;SDS011;5875;35.940;126.892;2024-01-11T04:34:03;0.20;;;0.20;;
11638;SDS011;5875;35.940;126.892;2024-01-11T04:36:30;2.07;;;1.57;;
11638;SDS011;5875;35.940;126.892;2024-01-11T04:38:57;0.27;;;0.27;;
11638;SDS011;5875;35.940;126.892;2024-01-11T04:41:24;0.77;;;0.77;;
11638;SDS011;5875;35.940;126.892;2024-01-11T04:43:51;1.27;;;0.93;;
11638;SDS011;5875;35.940;126.892;2024-01-11T04:46:22;2.00;;;1.33;;
11638;SDS011;5875;35.940;126.892;2024-01-11T04:48:49;0.10;;;0.10;;
11638;SDS011;5875;35.940;126.892;2024-01-11T04:51:17;0.83;;;0.83;;
11638;SDS011;5875;35.940;126.892;2024-01-11T04:53:45;0.10;;;0.10;;
11638;SDS011;5875;35.940;126.892;2024-01-11T04:56:16;0.40;;;0.40;;
11638;SDS011;5875;35.940;126.892;2024-01-11T04:58:44;0.60;;;0.60;;
11638;SDS011;5875;35.940;126.892;2024-01-11T05:01:14;0.30;;;0.30;;
11638;SDS011;5875;35.940;126.892;2024-01-11T05:03:43;0.50;;;0.50;;
11638;SDS011;5875;35.940;126.892;2024-01-11T05:06:20;0.60;;;0.60;;
11638;SDS011;5875;35.940;126.892;2024-01-11T05:08:51;0.30;;;0.30;;
11638;SDS011;5875;35.940;126.892;2024-01-11T05:11:19;1.03;;;0.50;;
11638;SDS011;5875;35.940;126.892;2024-01-11T05:13:48;0.30;;;0.30;;
11638;SDS011;5875;35.940;126.892;2024-01-11T05:16:23;0.30;;;0.30;;
11638;SDS011;5875;35.940;126.892;2024-01-11T05:18:55;3.80;;;1.43;;
11638;SDS011;5875;35.940;126.892;2024-01-11T05:21:23;0.17;;;0.17;;
11638;SDS011;5875;35.940;126.892;2024-01-11T05:23:51;0.77;;;0.53;;
11638;SDS011;5875;35.940;126.892;2024-01-11T05:26:18;0.07;;;0.07;;
11638;SDS011;5875;35.940;126.892;2024-01-11T05:28:46;0.77;;;0.70;;
11638;SDS011;5875;35.940;126.892;2024-01-11T05:31:16;0.43;;;0.43;;
11638;SDS011;5875;35.940;126.892;2024-01-11T05:33:44;0.10;;;0.10;;
11638;SDS011;5875;35.940;126.892;2024-01-11T05:36:14;0.40;;;0.40;;
11638;SDS011;5875;35.940;126.892;2024-01-11T05:38:41;0.10;;;0.10;;
11638;SDS011;5875;35.940;126.892;2024-01-11T05:41:08;0.20;;;0.20;;
11638;SDS011;5875;35.940;126.892;2024-01-11T05:43:37;0.50;;;0.50;;
11638;SDS011;5875;35.940;126.892;2024-01-11T05:46:08;1.47;;;1.37;;
11638;SDS011;5875;35.940;126.892;2024-01-11T05:48:35;1.03;;;0.93;;
11638;SDS011;5875;35.940;126.892;2024-01-11T05:51:02;0.30;;;0.30;;
11638;SDS011;5875;35.940;126.892;2024-01-11T05:53:32;4.97;;;0.67;;
11638;SDS011;5875;35.940;126.892;2024-01-11T05:56:07;1.17;;;0.73;;
11638;SDS011;5875;35.940;126.892;2024-01-11T05:58:35;1.07;;;0.97;;
11638;SDS011;5875;35.940;126.892;2024-01-11T06:01:03;1.80;;;1.53;;
11638;SDS011;5875;35.940;126.892;2024-01-11T06:03:31;1.50;;;0.63;;
11638;SDS011;5875;35.940;126.892;2024-01-11T06:06:00;0.27;;;0.27;;
11638;SDS011;5875;35.940;126.892;2024-01-11T06:08:28;0.70;;;0.70;;
11638;SDS011;5875;35.940;126.892;2024-01-11T06:10:56;0.50;;;0.50;;
11638;SDS011;5875;35.940;126.892;2024-01-11T06:13:23;0.77;;;0.77;;
11638;SDS011;5875;35.940;126.892;2024-01-11T06:15:51;0.80;;;0.80;;
11638;SDS011;5875;35.940;126.892;2024-01-11T06:18:18;1.20;;;0.53;;
11638;SDS011;5875;35.940;126.892;2024-01-11T06:20:45;0.73;;;0.73;;
11638;SDS011;5875;35.940;126.892;2024-01-11T06:23:13;0.10;;;0.10;;
11638;SDS011;5875;35.940;126.892;2024-01-11T06:25:41;1.17;;;0.80;;
11638;SDS011;5875;35.940;126.892;2024-01-11T06:28:08;0.37;;;0.37;;
11638;SDS011;5875;35.940;126.892;2024-01-11T06:30:35;0.60;;;0.40;;
11638;SDS011;5875;35.940;126.892;2024-01-11T06:33:03;0.50;;;0.50;;
11638;SDS011;5875;35.940;126.892;2024-01-11T06:35:30;0.63;;;0.63;;
11638;SDS011;5875;35.940;126.892;2024-01-11T06:37:57;0.57;;;0.57;;
11638;SDS011;5875;35.940;126.892;2024-01-11T06:40:24;1.50;;;1.40;;
11638;SDS011;5875;35.940;126.892;2024-01-11T06:42:51;0.40;;;0.40;;
11638;SDS011;5875;35.940;126.892;2024-01-11T06:45:19;0.20;;;0.20;;
11638;SDS011;5875;35.940;126.892;2024-01-11T06:47:46;0.40;;;0.40;;
11638;SDS011;5875;35.940;126.892;2024-01-11T06:50:14;0.77;;;0.77;;
11638;SDS011;5875;35.940;126.892;2024-01-11T06:52:41;0.83;;;0.77;;
11638;SDS011;5875;35.940;126.892;2024-01-11T06:55:09;1.53;;;1.43;;
11638;SDS011;5875;35.940;126.892;2024-01-11T06:57:36;0.30;;;0.30;;
11638;SDS011;5875;35.940;126.892;2024-01-11T07:00:03;0.03;;;0.03;;
11638;SDS011;5875;35.940;126.892;2024-01-11T07:02:35;0.97;;;0.60;;
11638;SDS011;5875;35.940;126.892;2024-01-11T07:05:02;0.60;;;0.60;;
11638;SDS011;5875;35.940;126.892;2024-01-11T07:07:30;0.87;;;0.87;;
11638;SDS011;5875;35.940;126.892;2024-01-11T07:09:58;0.47;;;0.47;;
11638;SDS011;5875;35.940;126.892;2024-01-11T07:12:25;0.40;;;0.40;;
11638;SDS011;5875;35.940;126.892;2024-01-11T07:14:52;1.83;;;1.37;;
11638;SDS011;5875;35.940;126.892;2024-01-11T07:17:19;0.60;;;0.60;;
11638;SDS011;5875;35.940;126.892;2024-01-11T07:19:48;0.20;;;0.20;;
11638;SDS011;5875;35.940;126.892;2024-01-11T07:22:15;0.87;;;0.73;;
11638;SDS011;5875;35.940;126.892;2024-01-11T07:24:42;1.00;;;1.00;;
11638;SDS011;5875;35.940;126.892;2024-01-11T07:27:09;0.90;;;0.90;;
11638;SDS011;5875;35.940;126.892;2024-01-11T07:29:36;1.07;;;0.20;;
11638;SDS011;5875;35.940;126.892;2024-01-11T07:32:04;0.50;;;0.50;;
11638;SDS011;5875;35.940;126.892;2024-01-11T07:34:31;1.23;;;0.83;;
11638;SDS011;5875;35.940;126.892;2024-01-11T07:36:59;0.60;;;0.60;;
11638;SDS011;5875;35.940;126.892;2024-01-11T07:39:26;0.57;;;0.57;;
11638;SDS011;5875;35.940;126.892;2024-01-11T07:41:53;1.37;;;1.27;;
11638;SDS011;5875;35.940;126.892;2024-01-11T07:44:23;1.23;;;1.23;;
11638;SDS011;5875;35.940;126.892;2024-01-11T07:46:50;0.37;;;0.37;;
11638;SDS011;5875;35.940;126.892;2024-01-11T07:49:17;2.03;;;0.97;;
11638;SDS011;5875;35.940;126.892;2024-01-11T07:51:44;0.57;;;0.57;;
11638;SDS011;5875;35.940;126.892;2024-01-11T07:54:11;0.43;;;0.43;;
11638;SDS011;5875;35.940;126.892;2024-01-11T07:56:38;0.20;;;0.20;;
11638;SDS011;5875;35.940;126.892;2024-01-11T07:59:06;0.87;;;0.87;;
11638;SDS011;5875;35.940;126.892;2024-01-11T08:01:33;0.60;;;0.60;;
11638;SDS011;5875;35.940;126.892;2024-01-11T08:04:00;0.50;;;0.40;;
11638;SDS011;5875;35.940;126.892;2024-01-11T08:06:28;0.50;;;0.50;;
11638;SDS011;5875;35.940;126.892;2024-01-11T08:08:55;1.03;;;0.83;;
11638;SDS011;5875;35.940;126.892;2024-01-11T08:11:23;0.93;;;0.93;;
11638;SDS011;5875;35.940;126.892;2024-01-11T08:13:50;0.50;;;0.50;;
11638;SDS011;5875;35.940;126.892;2024-01-11T08:16:20;2.83;;;0.77;;
11638;SDS011;5875;35.940;126.892;2024-01-11T08:18:47;2.17;;;1.80;;
11638;SDS011;5875;35.940;126.892;2024-01-11T08:21:15;0.90;;;0.90;;
11638;SDS011;5875;35.940;126.892;2024-01-11T08:23:42;0.70;;;0.70;;
11638;SDS011;5875;35.940;126.892;2024-01-11T08:26:13;0.20;;;0.20;;
11638;SDS011;5875;35.940;126.892;2024-01-11T08:28:42;0.77;;;0.73;;
11638;SDS011;5875;35.940;126.892;2024-01-11T08:31:09;1.00;;;0.63;;
11638;SDS011;5875;35.940;126.892;2024-01-11T08:33:39;0.60;;;0.60;;
11638;SDS011;5875;35.940;126.892;2024-01-11T08:36:09;0.83;;;0.60;;
11638;SDS011;5875;35.940;126.892;2024-01-11T08:38:37;0.43;;;0.43;;
11638;SDS011;5875;35.940;126.892;2024-01-11T08:41:06;2.33;;;0.47;;
11638;SDS011;5875;35.940;126.892;2024-01-11T08:43:33;0.83;;;0.83;;
11638;SDS011;5875;35.940;126.892;2024-01-11T08:46:00;0.80;;;0.80;;
11638;SDS011;5875;35.940;126.892;2024-01-11T08:48:27;0.70;;;0.70;;
11638;SDS011;5875;35.940;126.892;2024-01-11T08:50:54;1.90;;;1.80;;
11638;SDS011;5875;35.940;126.892;2024-01-11T08:53:21;0.83;;;0.83;;
11638;SDS011;5875;35.940;126.892;2024-01-11T08:55:49;1.30;;;1.13;;
11638;SDS011;5875;35.940;126.892;2024-01-11T08:58:19;0.53;;;0.53;;
11638;SDS011;5875;35.940;126.892;2024-01-11T09:00:46;1.57;;;1.47;;
11638;SDS011;5875;35.940;126.892;2024-01-11T09:03:13;0.80;;;0.80;;
11638;SDS011;5875;35.940;126.892;2024-01-11T09:05:42;2.23;;;1.27;;
11638;SDS011;5875;35.940;126.892;2024-01-11T09:08:09;0.67;;;0.67;;
11638;SDS011;5875;35.940;126.892;2024-01-11T09:10:36;0.83;;;0.83;;
11638;SDS011;5875;35.940;126.892;2024-01-11T09:13:03;0.63;;;0.37;;
11638;SDS011;5875;35.940;126.892;2024-01-11T09:15:30;0.50;;;0.50;;
11638;SDS011;5875;35.940;126.892;2024-01-11T09:17:59;0.30;;;0.30;;
11638;SDS011;5875;35.940;126.892;2024-01-11T09:20:26;0.40;;;0.40;;
11638;SDS011;5875;35.940;126.892;2024-01-11T09:22:53;1.50;;;1.13;;
11638;SDS011;5875;35.940;126.892;2024-01-11T09:25:20;1.67;;;1.57;;
11638;SDS011;5875;35.940;126.892;2024-01-11T09:27:50;6.53;;;2.30;;
11638;SDS011;5875;35.940;126.892;2024-01-11T09:30:17;2.13;;;1.83;;
11638;SDS011;5875;35.940;126.892;2024-01-11T09:32:44;1.90;;;1.70;;
11638;SDS011;5875;35.940;126.892;2024-01-11T09:35:13;0.40;;;0.40;;
11638;SDS011;5875;35.940;126.892;2024-01-11T09:37:40;1.87;;;1.73;;
11638;SDS011;5875;35.940;126.892;2024-01-11T09:40:12;0.40;;;0.40;;
11638;SDS011;5875;35.940;126.892;2024-01-11T09:42:39;1.63;;;1.53;;
11638;SDS011;5875;35.940;126.892;2024-01-11T09:45:08;1.70;;;1.60;;
11638;SDS011;5875;35.940;126.892;2024-01-11T09:47:38;0.57;;;0.47;;
11638;SDS011;5875;35.940;126.892;2024-01-11T09:50:06;0.83;;;0.83;;
11638;SDS011;5875;35.940;126.892;2024-01-11T09:52:34;0.97;;;0.70;;
11638;SDS011;5875;35.940;126.892;2024-01-11T09:55:03;0.40;;;0.40;;
11638;SDS011;5875;35.940;126.892;2024-01-11T09:57:31;0.57;;;0.57;;
11638;SDS011;5875;35.940;126.892;2024-01-11T10:00:02;1.67;;;1.57;;
11638;SDS011;5875;35.940;126.892;2024-01-11T10:02:33;2.57;;;1.00;;
11638;SDS011;5875;35.940;126.892;2024-01-11T10:05:00;2.03;;;1.53;;
11638;SDS011;5875;35.940;126.892;2024-01-11T10:07:27;1.13;;;1.13;;
11638;SDS011;5875;35.940;126.892;2024-01-11T10:09:58;3.73;;;2.07;;
11638;SDS011;5875;35.940;126.892;2024-01-11T10:12:27;3.03;;;2.50;;
11638;SDS011;5875;35.940;126.892;2024-01-11T10:14:54;1.00;;;1.00;;
11638;SDS011;5875;35.940;126.892;2024-01-11T10:17:30;0.87;;;0.87;;
11638;SDS011;5875;35.940;126.892;2024-01-11T10:19:57;0.80;;;0.80;;
11638;SDS011;5875;35.940;126.892;2024-01-11T10:22:24;2.33;;;2.13;;
11638;SDS011;5875;35.940;126.892;2024-01-11T10:24:59;5.23;;;3.03;;
11638;SDS011;5875;35.940;126.892;2024-01-11T10:27:37;1.13;;;1.13;;
11638;SDS011;5875;35.940;126.892;2024-01-11T10:30:09;2.07;;;1.97;;
11638;SDS011;5875;35.940;126.892;2024-01-11T10:32:48;2.63;;;2.00;;
11638;SDS011;5875;35.940;126.892;2024-01-11T10:35:15;0.93;;;0.93;;
11638;SDS011;5875;35.940;126.892;2024-01-11T10:37:50;1.60;;;1.23;;
11638;SDS011;5875;35.940;126.892;2024-01-11T10:40:21;1.10;;;1.07;;
11638;SDS011;5875;35.940;126.892;2024-01-11T10:42:51;1.80;;;1.63;;
11638;SDS011;5875;35.940;126.892;2024-01-11T10:45:19;2.00;;;1.67;;
11638;SDS011;5875;35.940;126.892;2024-01-11T10:47:54;1.93;;;1.40;;
11638;SDS011;5875;35.940;126.892;2024-01-11T10:50:25;1.90;;;1.80;;
11638;SDS011;5875;35.940;126.892;2024-01-11T10:53:03;0.73;;;0.73;;
11638;SDS011;5875;35.940;126.892;2024-01-11T10:55:31;1.70;;;1.60;;
11638;SDS011;5875;35.940;126.892;2024-01-11T10:58:00;5.63;;;2.30;;
11638;SDS011;5875;35.940;126.892;2024-01-11T11:00:28;2.57;;;2.37;;
11638;SDS011;5875;35.940;126.892;2024-01-11T11:02:58;4.00;;;2.77;;
11638;SDS011;5875;35.940;126.892;2024-01-11T11:05:27;3.57;;;3.17;;
11638;SDS011;5875;35.940;126.892;2024-01-11T11:07:56;1.60;;;1.50;;
11638;SDS011;5875;35.940;126.892;2024-01-11T11:10:23;2.10;;;1.93;;
11638;SDS011;5875;35.940;126.892;2024-01-11T11:12:53;2.53;;;2.33;;
11638;SDS011;5875;35.940;126.892;2024-01-11T11:15:28;2.07;;;1.97;;
11638;SDS011;5875;35.940;126.892;2024-01-11T11:17:55;2.63;;;2.43;;
11638;SDS011;5875;35.940;126.892;2024-01-11T11:20:23;3.17;;;1.67;;
11638;SDS011;5875;35.940;126.892;2024-01-11T11:23:05;2.40;;;2.20;;
11638;SDS011;5875;35.940;126.892;2024-01-11T11:25:35;2.20;;;2.07;;
11638;SDS011;5875;35.940;126.892;2024-01-11T11:28:03;7.93;;;3.20;;
11638;SDS011;5875;35.940;126.892;2024-01-11T11:30:31;3.73;;;2.20;;
11638;SDS011;5875;35.940;126.892;2024-01-11T11:33:07;1.80;;;1.70;;
11638;SDS011;5875;35.940;126.892;2024-01-11T11:35:49;7.17;;;3.97;;
11638;SDS011;5875;35.940;126.892;2024-01-11T11:38:20;2.20;;;1.60;;
11638;SDS011;5875;35.940;126.892;2024-01-11T11:40:49;2.20;;;1.97;;
11638;SDS011;5875;35.940;126.892;2024-01-11T11:43:20;1.93;;;1.83;;
11638;SDS011;5875;35.940;126.892;2024-01-11T11:45:48;1.63;;;1.53;;
11638;SDS011;5875;35.940;126.892;2024-01-11T11:53:41;1.53;;;1.20;;
11638;SDS011;5875;35.940;126.892;2024-01-11T11:56:11;3.33;;;2.77;;
11638;SDS011;5875;35.940;126.892;2024-01-11T11:58:40;2.37;;;2.17;;
11638;SDS011;5875;35.940;126.892;2024-01-11T12:01:08;2.73;;;2.50;;
11638;SDS011;5875;35.940;126.892;2024-01-11T12:03:40;0.77;;;0.77;;
11638;SDS011;5875;35.940;126.892;2024-01-11T12:06:12;2.90;;;2.50;;
11638;SDS011;5875;35.940;126.892;2024-01-11T12:08:41;1.97;;;1.63;;
11638;SDS011;5875;35.940;126.892;2024-01-11T12:11:09;1.23;;;1.20;;
11638;SDS011;5875;35.940;126.892;2024-01-11T12:13:40;5.30;;;2.27;;
11638;SDS011;5875;35.940;126.892;2024-01-11T12:16:10;2.77;;;2.57;;
11638;SDS011;5875;35.940;126.892;2024-01-11T12:18:37;2.43;;;1.93;;
11638;SDS011;5875;35.940;126.892;2024-01-11T12:21:05;2.17;;;1.20;;
11638;SDS011;5875;35.940;126.892;2024-01-11T12:23:33;1.53;;;1.43;;
11638;SDS011;5875;35.940;126.892;2024-01-11T12:26:01;2.57;;;2.27;;
11638;SDS011;5875;35.940;126.892;2024-01-11T12:28:33;1.97;;;1.67;;
11638;SDS011;5875;35.940;126.892;2024-01-11T12:31:01;1.97;;;1.63;;
11638;SDS011;5875;35.940;126.892;2024-01-11T12:33:29;5.50;;;3.00;;
11638;SDS011;5875;35.940;126.892;2024-01-11T12:35:56;1.73;;;1.63;;
11638;SDS011;5875;35.940;126.892;2024-01-11T12:38:26;1.90;;;1.80;;
11638;SDS011;5875;35.940;126.892;2024-01-11T12:40:53;2.80;;;2.70;;
11638;SDS011;5875;35.940;126.892;2024-01-11T12:43:21;2.10;;;2.00;;
11638;SDS011;5875;35.940;126.892;2024-01-11T12:45:48;1.77;;;1.67;;
11638;SDS011;5875;35.940;126.892;2024-01-11T12:48:15;17.37;;;2.30;;
11638;SDS011;5875;35.940;126.892;2024-01-11T12:50:45;1.57;;;1.47;;
11638;SDS011;5875;35.940;126.892;2024-01-11T12:53:15;1.10;;;1.10;;
11638;SDS011;5875;35.940;126.892;2024-01-11T12:55:49;3.73;;;1.50;;
11638;SDS011;5875;35.940;126.892;2024-01-11T12:58:33;2.03;;;1.93;;
11638;SDS011;5875;35.940;126.892;2024-01-11T13:01:04;1.47;;;1.37;;
11638;SDS011;5875;35.940;126.892;2024-01-11T13:03:37;2.13;;;1.93;;
11638;SDS011;5875;35.940;126.892;2024-01-11T13:06:06;1.60;;;1.50;;
11638;SDS011;5875;35.940;126.892;2024-01-11T13:08:34;3.53;;;2.93;;
11638;SDS011;5875;35.940;126.892;2024-01-11T13:11:03;2.60;;;1.77;;
11638;SDS011;5875;35.940;126.892;2024-01-11T13:13:35;1.10;;;1.10;;
11638;SDS011;5875;35.940;126.892;2024-01-11T13:16:03;1.70;;;1.13;;
11638;SDS011;5875;35.940;126.892;2024-01-11T13:18:40;0.70;;;0.70;;
11638;SDS011;5875;35.940;126.892;2024-01-11T13:21:07;2.60;;;1.73;;
11638;SDS011;5875;35.940;126.892;2024-01-11T13:23:40;1.20;;;1.20;;
11638;SDS011;5875;35.940;126.892;2024-01-11T13:26:07;2.50;;;0.87;;
11638;SDS011;5875;35.940;126.892;2024-01-11T13:28:34;0.43;;;0.43;;
11638;SDS011;5875;35.940;126.892;2024-01-11T13:31:02;1.60;;;1.50;;
11638;SDS011;5875;35.940;126.892;2024-01-11T13:33:29;1.37;;;1.00;;
11638;SDS011;5875;35.940;126.892;2024-01-11T13:35:56;1.87;;;1.77;;
11638;SDS011;5875;35.940;126.892;2024-01-11T13:38:24;0.50;;;0.50;;
11638;SDS011;5875;35.940;126.892;2024-01-11T13:40:51;0.97;;;0.97;;
11638;SDS011;5875;35.940;126.892;2024-01-11T13:43:18;3.10;;;2.10;;
11638;SDS011;5875;35.940;126.892;2024-01-11T13:45:45;2.17;;;1.40;;
11638;SDS011;5875;35.940;126.892;2024-01-11T13:48:13;0.70;;;0.70;;
11638;SDS011;5875;35.940;126.892;2024-01-11T13:50:40;1.90;;;1.80;;
11638;SDS011;5875;35.940;126.892;2024-01-11T13:53:07;1.83;;;1.73;;
11638;SDS011;5875;35.940;126.892;2024-01-11T13:55:37;0.67;;;0.67;;
11638;SDS011;5875;35.940;126.892;2024-01-11T13:58:05;0.70;;;0.70;;
11638;SDS011;5875;35.940;126.892;2024-01-11T14:00:32;1.67;;;1.57;;
11638;SDS011;5875;35.940;126.892;2024-01-11T14:02:59;1.17;;;1.07;;
11638;SDS011;5875;35.940;126.892;2024-01-11T14:05:26;1.47;;;1.33;;
11638;SDS011;5875;35.940;126.892;2024-01-11T14:07:56;3.73;;;1.80;;
11638;SDS011;5875;35.940;126.892;2024-01-11T14:10:24;1.43;;;1.33;;
11638;SDS011;5875;35.940;126.892;2024-01-11T14:12:52;2.27;;;2.10;;
11638;SDS011;5875;35.940;126.892;2024-01-11T14:15:19;2.10;;;1.83;;
11638;SDS011;5875;35.940;126.892;2024-01-11T14:17:46;2.53;;;2.17;;
11638;SDS011;5875;35.940;126.892;2024-01-11T14:20:13;1.23;;;1.20;;
11638;SDS011;5875;35.940;126.892;2024-01-11T14:22:41;1.50;;;1.43;;
11638;SDS011;5875;35.940;126.892;2024-01-11T14:25:12;0.83;;;0.83;;
11638;SDS011;5875;35.940;126.892;2024-01-11T14:27:40;1.13;;;1.03;;
11638;SDS011;5875;35.940;126.892;2024-01-11T14:30:07;0.90;;;0.90;;
11638;SDS011;5875;35.940;126.892;2024-01-11T14:32:35;0.97;;;0.97;;
11638;SDS011;5875;35.940;126.892;2024-01-11T14:35:02;2.17;;;1.97;;
11638;SDS011;5875;35.940;126.892;2024-01-11T14:37:31;1.90;;;1.80;;
11638;SDS011;5875;35.940;126.892;2024-01-11T14:39:59;1.13;;;1.03;;
11638;SDS011;5875;35.940;126.892;2024-01-11T14:42:27;0.83;;;0.83;;
11638;SDS011;5875;35.940;126.892;2024-01-11T14:44:54;0.93;;;0.93;;